Time;durP1;ratioP1;P1;durP2;ratioP2;P2;SDS_P1;SDS_P2;PMS_P1;PMS_P2;Temp;Humidity;BMP_temperature;BMP_pressure;BME280_temperature;BME280_humidity;BME280_pressure;Samples;Min_cycle;Max_cycle;Signal;HPM_P1;HPM_P2
2023/06/15 00:02:20;;;;;;;1.80;1.65;;;;;;;;;;5045170;28;20207;-70
2023/06/15 00:04:46;;;;;;;4.57;2.15;;;;;;;;;;5050972;28;20174;-70
2023/06/15 00:07:11;;;;;;;1.70;1.60;;;;;;;;;;5046029;28;20197;-70
2023/06/15 00:09:36;;;;;;;2.10;1.88;;;;;;;;;;5042404;28;20210;-69
2023/06/15 00:12:02;;;;;;;3.33;1.80;;;;;;;;;;5049516;28;20636;-71
2023/06/15 00:14:27;;;;;;;1.75;1.65;;;;;;;;;;5047528;28;20186;-70
2023/06/15 00:16:52;;;;;;;4.70;1.85;;;;;;;;;;5050179;22;20695;-77
2023/06/15 00:19:19;;;;;;;3.42;2.60;;;;;;;;;;5047475;28;20632;-77
2023/06/15 00:21:47;;;;;;;2.85;2.38;;;;;;;;;;5034093;28;20220;-78
2023/06/15 00:24:13;;;;;;;2.08;1.83;;;;;;;;;;5050484;28;20177;-77
2023/06/15 00:26:38;;;;;;;3.22;2.42;;;;;;;;;;5053662;28;20276;-77
2023/06/15 00:29:03;;;;;;;2.95;2.65;;;;;;;;;;5025573;28;20178;-78
2023/06/15 00:31:28;;;;;;;5.05;2.80;;;;;;;;;;5052119;28;20205;-78
2023/06/15 00:33:53;;;;;;;3.78;2.30;;;;;;;;;;5048317;28;20180;-78
2023/06/15 00:36:19;;;;;;;2.85;2.55;;;;;;;;;;5053483;28;20189;-77
2023/06/15 00:38:44;;;;;;;3.35;2.25;;;;;;;;;;5030174;28;20182;-77
2023/06/15 00:41:09;;;;;;;3.90;2.25;;;;;;;;;;5030091;28;20228;-77
2023/06/15 00:43:35;;;;;;;4.28;2.58;;;;;;;;;;5048874;28;20177;-78
2023/06/15 00:46:01;;;;;;;4.22;3.53;;;;;;;;;;5048769;28;20169;-77
2023/06/15 00:48:26;;;;;;;4.40;3.00;;;;;;;;;;5052992;28;20320;-77
2023/06/15 00:50:51;;;;;;;8.25;2.38;;;;;;;;;;5052418;28;20173;-78
2023/06/15 00:53:17;;;;;;;5.85;3.05;;;;;;;;;;5050442;28;20209;-77
2023/06/15 00:55:43;;;;;;;4.57;2.35;;;;;;;;;;5040688;28;20193;-78
2023/06/15 00:58:08;;;;;;;5.57;3.15;;;;;;;;;;5047535;28;20201;-78
2023/06/15 01:00:36;;;;;;;3.67;2.97;;;;;;;;;;5054768;28;20216;-77
2023/06/15 01:03:04;;;;;;;4.43;3.00;;;;;;;;;;5035988;28;20268;-77
2023/06/15 01:05:30;;;;;;;3.10;2.80;;;;;;;;;;5053151;28;20178;-78
2023/06/15 01:07:56;;;;;;;4.18;2.83;;;;;;;;;;5034164;28;20720;-77
2023/06/15 01:10:23;;;;;;;4.28;3.08;;;;;;;;;;5034074;28;20182;-78
2023/06/15 01:12:50;;;;;;;3.78;2.88;;;;;;;;;;5022381;28;20186;-77
2023/06/15 01:15:16;;;;;;;3.83;2.45;;;;;;;;;;5034266;28;20280;-78
2023/06/15 01:17:45;;;;;;;4.78;3.40;;;;;;;;;;5044479;28;20250;-77
2023/06/15 01:20:24;;;;;;;7.53;3.17;;;;;;;;;;5048153;28;20781;-77
2023/06/15 01:22:55;;;;;;;4.18;2.97;;;;;;;;;;5032181;28;20174;-77
2023/06/15 01:25:29;;;;;;;5.97;3.55;;;;;;;;;;5049672;28;20180;-78
2023/06/15 01:28:01;;;;;;;3.70;3.00;;;;;;;;;;5042958;28;20586;-77
2023/06/15 01:30:42;;;;;;;3.65;2.97;;;;;;;;;;5052836;28;20260;-78
2023/06/15 01:33:08;;;;;;;4.60;2.95;;;;;;;;;;5050726;28;20683;-77
2023/06/15 01:35:33;;;;;;;5.47;3.03;;;;;;;;;;5051020;28;20189;-78
2023/06/15 01:37:59;;;;;;;4.45;3.10;;;;;;;;;;5056055;28;20264;-78
2023/06/15 01:40:24;;;;;;;3.92;2.85;;;;;;;;;;5055064;28;20264;-78
2023/06/15 01:42:50;;;;;;;3.55;3.08;;;;;;;;;;5024751;28;20209;-78
2023/06/15 01:45:16;;;;;;;7.50;3.20;;;;;;;;;;5054387;28;20553;-78
2023/06/15 01:47:42;;;;;;;6.28;3.10;;;;;;;;;;5035302;28;20203;-78
2023/06/15 01:50:08;;;;;;;4.22;2.97;;;;;;;;;;5035753;28;20184;-78
2023/06/15 01:52:33;;;;;;;3.72;3.03;;;;;;;;;;5052999;28;20540;-78
2023/06/15 01:54:58;;;;;;;4.65;2.72;;;;;;;;;;5052734;28;20174;-78
2023/06/15 01:57:24;;;;;;;3.85;3.00;;;;;;;;;;5048882;28;20201;-77
2023/06/15 01:59:51;;;;;;;6.38;2.92;;;;;;;;;;5052824;28;20232;-78
2023/06/15 02:02:16;;;;;;;4.47;3.33;;;;;;;;;;5034163;28;20264;-78
2023/06/15 02:04:41;;;;;;;4.80;3.55;;;;;;;;;;5031835;28;20217;-78
2023/06/15 02:07:06;;;;;;;3.30;2.92;;;;;;;;;;5041952;28;20201;-78
2023/06/15 02:09:32;;;;;;;8.15;2.92;;;;;;;;;;5048381;28;20224;-78
2023/06/15 02:11:57;;;;;;;6.45;3.35;;;;;;;;;;5028562;28;20178;-78
2023/06/15 02:14:23;;;;;;;4.47;3.33;;;;;;;;;;5048728;28;20198;-78
2023/06/15 02:16:49;;;;;;;3.35;2.53;;;;;;;;;;5046733;28;20232;-78
2023/06/15 02:19:15;;;;;;;10.55;3.63;;;;;;;;;;5047672;28;20730;-78
2023/06/15 02:21:41;;;;;;;5.85;3.88;;;;;;;;;;5032830;28;20859;-77
2023/06/15 02:24:07;;;;;;;3.33;2.45;;;;;;;;;;5048302;28;20174;-78
2023/06/15 02:26:32;;;;;;;4.35;3.30;;;;;;;;;;5048004;28;20695;-78
2023/06/15 02:28:57;;;;;;;5.68;3.38;;;;;;;;;;5026035;28;20231;-78
2023/06/15 02:31:23;;;;;;;5.32;3.40;;;;;;;;;;5049334;28;20181;-78
2023/06/15 02:33:48;;;;;;;4.75;4.25;;;;;;;;;;5028819;28;20188;-77
2023/06/15 02:36:19;;;;;;;4.80;3.40;;;;;;;;;;5043258;28;20784;-78
2023/06/15 02:38:45;;;;;;;5.93;3.53;;;;;;;;;;5032004;28;20722;-78
2023/06/15 02:41:11;;;;;;;5.90;3.38;;;;;;;;;;5051760;28;20312;-78
2023/06/15 02:43:36;;;;;;;7.70;3.80;;;;;;;;;;5047676;28;20248;-78
2023/06/15 02:46:01;;;;;;;5.55;4.00;;;;;;;;;;5045678;28;20174;-77
2023/06/15 02:48:26;;;;;;;6.45;4.07;;;;;;;;;;5049488;28;20593;-77
2023/06/15 02:50:51;;;;;;;6.35;3.70;;;;;;;;;;5034217;28;20185;-78
2023/06/15 02:53:16;;;;;;;8.25;4.10;;;;;;;;;;5023736;28;20184;-78
2023/06/15 02:55:42;;;;;;;4.68;3.28;;;;;;;;;;5050227;28;20186;-77
2023/06/15 02:58:07;;;;;;;5.88;4.22;;;;;;;;;;5052322;28;20212;-77
2023/06/15 03:00:36;;;;;;;4.88;3.28;;;;;;;;;;5031517;28;20194;-78
2023/06/15 03:03:02;;;;;;;4.93;3.55;;;;;;;;;;5042748;28;20169;-78
2023/06/15 03:05:27;;;;;;;8.15;3.53;;;;;;;;;;5050894;28;20173;-77
2023/06/15 03:07:53;;;;;;;6.60;3.60;;;;;;;;;;5048994;28;20277;-78
2023/06/15 03:10:19;;;;;;;5.53;3.60;;;;;;;;;;5045470;28;20186;-78
2023/06/15 03:12:44;;;;;;;6.13;4.15;;;;;;;;;;5048771;28;20173;-77
2023/06/15 03:15:09;;;;;;;4.80;4.30;;;;;;;;;;5035703;28;20174;-78
2023/06/15 03:17:34;;;;;;;6.28;3.80;;;;;;;;;;5032900;28;20702;-77
2023/06/15 03:20:00;;;;;;;5.75;3.33;;;;;;;;;;5033790;28;20292;-77
2023/06/15 03:22:25;;;;;;;3.92;3.17;;;;;;;;;;5051880;28;20178;-78
2023/06/15 03:24:54;;;;;;;7.28;4.55;;;;;;;;;;5056732;28;20643;-78
2023/06/15 03:27:19;;;;;;;5.47;3.42;;;;;;;;;;5035904;28;20193;-78
2023/06/15 03:29:49;;;;;;;5.32;3.83;;;;;;;;;;5032275;28;20189;-78
2023/06/15 03:32:15;;;;;;;5.10;4.28;;;;;;;;;;5036651;28;20177;-78
2023/06/15 03:34:40;;;;;;;6.05;4.15;;;;;;;;;;5047993;28;20174;-78
2023/06/15 03:37:05;;;;;;;6.95;3.72;;;;;;;;;;5052338;28;20280;-77
2023/06/15 03:39:30;;;;;;;5.78;3.65;;;;;;;;;;5050327;28;20289;-78
2023/06/15 03:41:56;;;;;;;5.38;3.47;;;;;;;;;;5029500;28;20170;-78
2023/06/15 03:44:21;;;;;;;5.13;3.53;;;;;;;;;;5054350;28;20188;-78
2023/06/15 03:46:47;;;;;;;4.35;3.53;;;;;;;;;;5029311;28;20198;-77
2023/06/15 03:49:13;;;;;;;7.75;4.10;;;;;;;;;;5033306;28;20182;-78
2023/06/15 03:51:38;;;;;;;4.93;3.78;;;;;;;;;;5033509;28;20185;-78
2023/06/15 03:54:04;;;;;;;9.63;4.22;;;;;;;;;;5049148;28;20175;-78
2023/06/15 03:56:29;;;;;;;3.85;3.38;;;;;;;;;;5046576;28;20177;-78
2023/06/15 03:58:55;;;;;;;6.10;4.28;;;;;;;;;;5029960;28;20248;-78
2023/06/15 04:01:22;;;;;;;6.88;4.25;;;;;;;;;;5054975;28;20178;-78
2023/06/15 04:03:47;;;;;;;4.78;3.83;;;;;;;;;;5055921;28;20229;-78
2023/06/15 04:06:12;;;;;;;5.63;4.28;;;;;;;;;;5041626;28;20181;-78
2023/06/15 04:08:38;;;;;;;5.93;3.65;;;;;;;;;;5028919;28;20196;-78
2023/06/15 04:11:03;;;;;;;6.15;3.80;;;;;;;;;;5026725;28;20178;-78
2023/06/15 04:13:28;;;;;;;8.55;4.18;;;;;;;;;;5056039;28;20833;-77
2023/06/15 04:15:54;;;;;;;5.68;4.07;;;;;;;;;;5057308;28;20178;-77
2023/06/15 04:18:19;;;;;;;5.30;4.18;;;;;;;;;;5040211;28;20280;-78
2023/06/15 04:20:45;;;;;;;7.28;3.88;;;;;;;;;;5033310;28;20702;-78
2023/06/15 04:23:10;;;;;;;6.30;3.88;;;;;;;;;;5047162;28;20166;-78
2023/06/15 04:25:37;;;;;;;7.15;4.22;;;;;;;;;;5029834;28;20229;-78
2023/06/15 04:28:02;;;;;;;4.22;3.72;;;;;;;;;;5053788;28;20224;-78
2023/06/15 04:30:28;;;;;;;4.03;3.60;;;;;;;;;;5053580;28;20177;-78
2023/06/15 04:32:57;;;;;;;3.80;3.40;;;;;;;;;;5045780;28;20212;-79
2023/06/15 04:35:24;;;;;;;6.70;3.72;;;;;;;;;;5066188;28;20207;-79
2023/06/15 04:37:50;;;;;;;6.70;4.00;;;;;;;;;;5047948;28;20570;-79
2023/06/15 04:40:20;;;;;;;7.03;3.70;;;;;;;;;;5064696;28;20331;-79
2023/06/15 04:42:45;;;;;;;7.00;3.90;;;;;;;;;;5067367;28;20162;-79
2023/06/15 04:45:10;;;;;;;4.93;3.90;;;;;;;;;;5065104;28;20205;-79
2023/06/15 04:47:35;;;;;;;6.00;4.13;;;;;;;;;;5060414;28;20315;-78
2023/06/15 04:50:02;;;;;;;5.72;3.60;;;;;;;;;;5059748;28;20181;-79
2023/06/15 04:52:28;;;;;;;4.05;3.65;;;;;;;;;;5032416;28;20182;-79
2023/06/15 04:54:53;;;;;;;8.93;4.80;;;;;;;;;;5039960;28;20191;-79
2023/06/15 04:57:18;;;;;;;6.53;3.60;;;;;;;;;;5037358;28;20205;-78
2023/06/15 04:59:43;;;;;;;4.65;4.00;;;;;;;;;;5057433;28;20513;-79
2023/06/15 05:02:08;;;;;;;4.60;4.13;;;;;;;;;;5057833;28;20538;-79
2023/06/15 05:04:34;;;;;;;6.40;3.53;;;;;;;;;;5052718;28;20419;-79
2023/06/15 05:07:00;;;;;;;6.93;3.95;;;;;;;;;;5057582;28;20529;-80
2023/06/15 05:09:25;;;;;;;6.15;3.88;;;;;;;;;;5062626;28;20237;-79
2023/06/15 05:11:50;;;;;;;5.57;3.70;;;;;;;;;;5050773;28;20186;-78
2023/06/15 05:14:16;;;;;;;4.80;4.25;;;;;;;;;;5033113;28;20566;-78
2023/06/15 05:16:41;;;;;;;3.75;3.40;;;;;;;;;;5052521;28;20228;-79
2023/06/15 05:19:06;;;;;;;5.38;3.58;;;;;;;;;;5038474;28;20580;-78
2023/06/15 05:21:32;;;;;;;5.03;3.92;;;;;;;;;;5029592;28;20185;-79
2023/06/15 05:23:57;;;;;;;5.18;3.60;;;;;;;;;;5051503;28;20166;-78
2023/06/15 05:26:22;;;;;;;5.57;3.72;;;;;;;;;;5051167;28;20644;-78
2023/06/15 05:28:47;;;;;;;4.97;3.87;;;;;;;;;;5043103;28;20178;-78
2023/06/15 05:31:12;;;;;;;8.88;4.07;;;;;;;;;;5028458;28;20420;-77
2023/06/15 05:33:37;;;;;;;6.00;4.27;;;;;;;;;;5026524;28;20188;-78
2023/06/15 05:36:03;;;;;;;7.28;4.43;;;;;;;;;;5052230;28;20442;-79
2023/06/15 05:38:28;;;;;;;4.55;4.13;;;;;;;;;;5053031;28;20189;-79
2023/06/15 05:40:53;;;;;;;5.47;4.30;;;;;;;;;;5049676;28;20720;-78
2023/06/15 05:43:19;;;;;;;11.85;4.35;;;;;;;;;;5030293;28;20203;-78
2023/06/15 05:45:45;;;;;;;6.20;4.65;;;;;;;;;;5051280;28;20166;-78
2023/06/15 05:48:10;;;;;;;4.88;4.18;;;;;;;;;;5033792;28;20201;-78
2023/06/15 05:50:35;;;;;;;9.15;4.03;;;;;;;;;;5052934;28;21337;-79
2023/06/15 05:53:01;;;;;;;6.10;4.47;;;;;;;;;;5036534;28;20184;-78
2023/06/15 05:55:26;;;;;;;6.38;3.33;;;;;;;;;;5034837;28;20185;-78
2023/06/15 05:57:51;;;;;;;6.68;3.90;;;;;;;;;;5049624;28;20757;-77
2023/06/15 06:00:17;;;;;;;9.93;4.85;;;;;;;;;;5027939;28;20208;-78
2023/06/15 06:02:42;;;;;;;5.07;4.00;;;;;;;;;;5031975;28;20181;-78
2023/06/15 06:05:08;;;;;;;6.15;4.50;;;;;;;;;;5030281;28;20182;-78
2023/06/15 06:07:33;;;;;;;7.05;4.78;;;;;;;;;;5051889;28;20205;-78
2023/06/15 06:09:58;;;;;;;5.43;4.22;;;;;;;;;;5046307;28;20178;-78
2023/06/15 06:12:23;;;;;;;10.03;4.07;;;;;;;;;;5052894;28;20188;-78
2023/06/15 06:14:48;;;;;;;5.68;4.30;;;;;;;;;;5036559;28;20448;-78
2023/06/15 06:17:14;;;;;;;7.20;4.93;;;;;;;;;;5063521;23;20278;-69
2023/06/15 06:19:39;;;;;;;6.68;4.88;;;;;;;;;;5068411;28;20566;-68
2023/06/15 06:22:04;;;;;;;5.13;4.25;;;;;;;;;;5070091;28;20219;-69
2023/06/15 06:24:30;;;;;;;5.75;3.90;;;;;;;;;;5070940;28;20542;-69
2023/06/15 06:26:55;;;;;;;7.82;4.20;;;;;;;;;;5071272;28;20185;-69
2023/06/15 06:29:20;;;;;;;6.05;5.22;;;;;;;;;;5059244;28;20260;-70
2023/06/15 06:31:46;;;;;;;8.15;5.28;;;;;;;;;;5058814;28;20267;-69
2023/06/15 06:34:11;;;;;;;7.13;4.03;;;;;;;;;;5065593;28;20178;-69
2023/06/15 06:36:36;;;;;;;5.63;4.83;;;;;;;;;;5060702;28;20937;-70
2023/06/15 06:39:01;;;;;;;10.43;5.23;;;;;;;;;;5067399;28;20434;-69
2023/06/15 06:41:26;;;;;;;7.30;4.57;;;;;;;;;;5060415;28;20452;-76
2023/06/15 06:43:52;;;;;;;7.95;4.40;;;;;;;;;;5062215;28;20199;-75
2023/06/15 06:46:17;;;;;;;8.57;4.53;;;;;;;;;;5055903;28;20697;-76
2023/06/15 06:48:43;;;;;;;5.60;4.22;;;;;;;;;;5063984;28;20205;-76
2023/06/15 06:51:08;;;;;;;5.28;4.05;;;;;;;;;;5059517;28;20185;-76
2023/06/15 06:53:33;;;;;;;5.40;4.30;;;;;;;;;;5059679;28;20184;-76
2023/06/15 06:55:58;;;;;;;10.27;4.63;;;;;;;;;;5064137;28;20907;-75
2023/06/15 06:58:23;;;;;;;6.90;4.65;;;;;;;;;;5065578;28;20528;-76
2023/06/15 07:00:48;;;;;;;7.20;4.57;;;;;;;;;;5064187;28;20200;-75
2023/06/15 07:03:14;;;;;;;6.93;4.68;;;;;;;;;;5069606;28;20404;-75
2023/06/15 07:05:39;;;;;;;6.95;3.70;;;;;;;;;;5060907;28;20286;-75
2023/06/15 07:08:05;;;;;;;4.93;4.35;;;;;;;;;;5062185;28;20280;-76
2023/06/15 07:10:30;;;;;;;6.78;4.05;;;;;;;;;;5060673;28;20247;-76
2023/06/15 07:12:56;;;;;;;6.63;4.10;;;;;;;;;;5064023;28;20236;-75
2023/06/15 07:15:22;;;;;;;7.43;4.50;;;;;;;;;;5063629;28;20729;-77
2023/06/15 07:17:47;;;;;;;5.82;4.10;;;;;;;;;;5068099;28;20210;-76
2023/06/15 07:20:12;;;;;;;7.07;4.70;;;;;;;;;;5064968;28;20192;-76
2023/06/15 07:22:37;;;;;;;6.43;4.38;;;;;;;;;;5083049;28;20942;-76
2023/06/15 07:25:03;;;;;;;3.93;3.27;;;;;;;;;;5063914;28;20708;-76
2023/06/15 07:27:28;;;;;;;7.90;3.85;;;;;;;;;;5061659;28;20434;-76
2023/06/15 07:29:53;;;;;;;14.68;4.85;;;;;;;;;;5068560;28;20207;-76
2023/06/15 07:32:18;;;;;;;6.00;3.43;;;;;;;;;;5061992;28;20201;-76
2023/06/15 07:34:44;;;;;;;7.63;4.00;;;;;;;;;;5058096;28;20437;-77
2023/06/15 07:37:09;;;;;;;5.43;3.75;;;;;;;;;;5063553;28;20446;-76
2023/06/15 07:39:36;;;;;;;7.43;3.87;;;;;;;;;;5056208;28;20213;-76
2023/06/15 07:42:01;;;;;;;5.35;3.47;;;;;;;;;;5070201;28;20397;-76
2023/06/15 07:44:27;;;;;;;5.25;3.10;;;;;;;;;;5068922;28;20169;-76
2023/06/15 07:46:52;;;;;;;5.47;3.72;;;;;;;;;;5061871;28;20173;-76
2023/06/15 07:49:17;;;;;;;7.28;3.47;;;;;;;;;;5060531;28;20253;-76
2023/06/15 07:51:44;;;;;;;6.93;3.80;;;;;;;;;;5068089;28;20794;-76
2023/06/15 07:54:09;;;;;;;4.15;2.83;;;;;;;;;;5066029;28;20863;-76
2023/06/15 07:56:34;;;;;;;6.57;3.65;;;;;;;;;;5068877;28;20294;-76
2023/06/15 07:58:59;;;;;;;3.05;2.60;;;;;;;;;;5061490;28;20173;-76
2023/06/15 08:01:25;;;;;;;3.08;2.55;;;;;;;;;;5062470;28;20267;-76
2023/06/15 08:03:50;;;;;;;4.47;2.50;;;;;;;;;;5060964;28;20274;-76
2023/06/15 08:06:15;;;;;;;3.27;2.90;;;;;;;;;;5064555;28;20212;-76
2023/06/15 08:08:40;;;;;;;4.67;2.83;;;;;;;;;;5068749;28;20479;-76
2023/06/15 08:11:06;;;;;;;5.35;2.88;;;;;;;;;;5061310;28;20184;-76
2023/06/15 08:13:31;;;;;;;13.52;3.22;;;;;;;;;;5064784;28;20272;-76
2023/06/15 08:15:57;;;;;;;5.78;2.85;;;;;;;;;;5066925;28;20276;-75
2023/06/15 08:18:22;;;;;;;5.05;3.00;;;;;;;;;;5069442;28;20228;-77
2023/06/15 08:20:47;;;;;;;6.53;3.73;;;;;;;;;;5063508;28;20667;-75
2023/06/15 08:23:13;;;;;;;6.72;2.83;;;;;;;;;;5071506;28;20422;-77
2023/06/15 08:25:38;;;;;;;5.65;3.20;;;;;;;;;;5067355;28;20697;-76
2023/06/15 08:28:03;;;;;;;5.90;3.20;;;;;;;;;;5068009;28;20230;-75
2023/06/15 08:30:28;;;;;;;7.80;3.25;;;;;;;;;;5070577;28;20958;-76
2023/06/15 08:32:53;;;;;;;5.17;3.07;;;;;;;;;;5063354;28;20670;-77
2023/06/15 08:35:19;;;;;;;3.95;2.78;;;;;;;;;;5065265;28;20284;-76
2023/06/15 08:37:44;;;;;;;4.45;2.90;;;;;;;;;;5070305;28;20193;-76
2023/06/15 08:40:10;;;;;;;5.82;2.90;;;;;;;;;;5068981;28;20736;-76
2023/06/15 08:42:36;;;;;;;5.18;3.00;;;;;;;;;;5069715;28;20215;-76
2023/06/15 08:45:03;;;;;;;2.65;2.40;;;;;;;;;;5061698;28;20600;-76
2023/06/15 08:47:30;;;;;;;5.72;2.83;;;;;;;;;;5069331;28;20712;-76
2023/06/15 08:49:55;;;;;;;4.38;2.75;;;;;;;;;;5066726;28;20243;-75
2023/06/15 08:52:23;;;;;;;10.20;2.90;;;;;;;;;;5063505;28;20178;-74
2023/06/15 08:54:49;;;;;;;5.57;2.80;;;;;;;;;;5064867;28;20185;-76
2023/06/15 08:57:14;;;;;;;3.70;2.30;;;;;;;;;;5064479;28;20468;-76
2023/06/15 08:59:40;;;;;;;2.50;2.13;;;;;;;;;;5069632;28;20189;-76
2023/06/15 09:02:10;;;;;;;3.75;3.22;;;;;;;;;;5064883;28;20184;-76
2023/06/15 09:04:35;;;;;;;5.15;2.83;;;;;;;;;;5067466;28;20185;-75
2023/06/15 09:07:01;;;;;;;4.73;2.43;;;;;;;;;;5066753;28;20203;-76
2023/06/15 09:09:26;;;;;;;5.55;2.58;;;;;;;;;;5068580;28;20530;-76
2023/06/15 09:11:51;;;;;;;4.70;2.70;;;;;;;;;;5068532;28;20172;-75
2023/06/15 09:14:16;;;;;;;3.87;2.90;;;;;;;;;;5068686;28;20192;-76
2023/06/15 09:16:42;;;;;;;5.33;3.00;;;;;;;;;;5063838;28;20438;-77
2023/06/15 09:19:11;;;;;;;5.03;3.08;;;;;;;;;;5067578;28;20441;-77
2023/06/15 09:21:41;;;;;;;3.20;2.33;;;;;;;;;;5064366;28;20191;-77
2023/06/15 09:24:07;;;;;;;4.50;3.13;;;;;;;;;;5072501;28;20647;-76
2023/06/15 09:26:32;;;;;;;3.78;2.88;;;;;;;;;;5070828;28;20180;-76
2023/06/15 09:28:58;;;;;;;9.93;3.30;;;;;;;;;;5074344;28;20197;-76
2023/06/15 09:31:29;;;;;;;3.00;2.67;;;;;;;;;;5063622;28;20173;-77
2023/06/15 09:34:02;;;;;;;3.70;2.55;;;;;;;;;;5065174;28;20173;-76
2023/06/15 09:36:32;;;;;;;6.57;2.90;;;;;;;;;;5062975;28;20180;-76
2023/06/15 09:38:57;;;;;;;3.25;2.65;;;;;;;;;;5058663;28;20196;-76
2023/06/15 09:41:23;;;;;;;2.95;2.35;;;;;;;;;;5066777;28;20181;-76
2023/06/15 09:43:48;;;;;;;5.37;2.30;;;;;;;;;;5069493;28;20191;-75
2023/06/15 09:46:16;;;;;;;7.13;2.80;;;;;;;;;;5066161;28;20172;-76
2023/06/15 09:48:43;;;;;;;5.35;2.33;;;;;;;;;;5065663;28;20444;-76
2023/06/15 09:51:08;;;;;;;7.40;2.78;;;;;;;;;;5071461;28;20176;-76
2023/06/15 09:53:33;;;;;;;4.20;2.53;;;;;;;;;;5069540;28;20264;-77
2023/06/15 09:56:00;;;;;;;4.93;3.50;;;;;;;;;;5062597;28;20211;-75
2023/06/15 09:58:25;;;;;;;4.28;2.30;;;;;;;;;;5069974;28;20441;-76
2023/06/15 10:00:53;;;;;;;3.72;2.67;;;;;;;;;;5064494;28;20581;-75
2023/06/15 10:03:22;;;;;;;3.80;2.42;;;;;;;;;;5063307;28;20193;-75
2023/06/15 10:05:54;;;;;;;5.10;2.40;;;;;;;;;;5065228;28;20223;-76
2023/06/15 10:08:20;;;;;;;6.40;2.88;;;;;;;;;;5062664;28;20681;-76
2023/06/15 10:10:45;;;;;;;4.63;3.10;;;;;;;;;;5060562;28;20185;-76
2023/06/15 10:13:20;;;;;;;5.20;2.45;;;;;;;;;;5069030;28;20184;-76
2023/06/15 10:15:51;;;;;;;6.57;3.65;;;;;;;;;;5061287;28;20187;-75
2023/06/15 10:18:16;;;;;;;3.97;2.65;;;;;;;;;;5066568;28;20231;-76
2023/06/15 10:20:41;;;;;;;3.05;2.22;;;;;;;;;;5060735;28;20577;-76
2023/06/15 10:23:09;;;;;;;2.85;2.20;;;;;;;;;;5069002;28;20257;-76
2023/06/15 10:25:35;;;;;;;2.72;2.28;;;;;;;;;;5064727;28;20268;-75
2023/06/15 10:28:09;;;;;;;3.67;2.30;;;;;;;;;;5065228;28;20193;-75
2023/06/15 10:30:47;;;;;;;3.22;2.63;;;;;;;;;;5066585;28;20186;-75
2023/06/15 10:33:19;;;;;;;6.35;2.67;;;;;;;;;;5068157;28;20176;-76
2023/06/15 10:35:48;;;;;;;6.65;3.00;;;;;;;;;;5069522;28;20195;-76
2023/06/15 10:38:24;;;;;;;4.57;2.88;;;;;;;;;;5069371;28;20188;-77
2023/06/15 10:40:50;;;;;;;3.60;2.70;;;;;;;;;;5068558;28;20302;-76
2023/06/15 10:43:24;;;;;;;5.78;2.88;;;;;;;;;;5068418;28;20251;-76
2023/06/15 10:45:49;;;;;;;3.80;2.85;;;;;;;;;;5065677;28;20641;-76
2023/06/15 10:48:22;;;;;;;4.70;2.57;;;;;;;;;;5064279;28;20198;-76
2023/06/15 10:50:48;;;;;;;2.63;2.05;;;;;;;;;;5065475;28;20433;-77
2023/06/15 10:53:33;;;;;;;7.57;2.70;;;;;;;;;;5067768;28;20269;-76
2023/06/15 10:55:59;;;;;;;3.47;2.65;;;;;;;;;;5066824;28;20172;-76
2023/06/15 10:58:26;;;;;;;3.05;2.63;;;;;;;;;;5063655;28;20223;-76
2023/06/15 11:01:03;;;;;;;2.95;2.15;;;;;;;;;;5066835;28;20196;-75
2023/06/15 11:03:30;;;;;;;6.78;2.40;;;;;;;;;;5061775;28;20176;-75
2023/06/15 11:06:06;;;;;;;5.25;2.35;;;;;;;;;;5060780;28;20184;-75
2023/06/15 11:08:40;;;;;;;3.38;2.60;;;;;;;;;;5065277;28;20203;-76
2023/06/15 11:11:08;;;;;;;3.85;2.45;;;;;;;;;;5071639;28;20168;-76
2023/06/15 11:13:34;;;;;;;2.08;1.77;;;;;;;;;;5061736;28;20650;-75
2023/06/15 11:16:06;;;;;;;4.57;2.50;;;;;;;;;;5070421;28;20259;-76
2023/06/15 11:18:32;;;;;;;5.88;2.55;;;;;;;;;;5067393;28;20246;-75
2023/06/15 11:20:59;;;;;;;3.35;2.13;;;;;;;;;;5070708;28;20235;-76
2023/06/15 11:23:26;;;;;;;5.80;2.63;;;;;;;;;;5068680;28;20182;-76
2023/06/15 11:25:55;;;;;;;2.58;2.00;;;;;;;;;;5066917;28;20222;-76
2023/06/15 11:28:22;;;;;;;3.45;2.10;;;;;;;;;;5060861;28;20200;-77
2023/06/15 11:31:07;;;;;;;5.13;2.70;;;;;;;;;;5068312;28;21573;-76
2023/06/15 11:33:37;;;;;;;2.83;2.33;;;;;;;;;;5068000;28;20188;-76
2023/06/15 11:36:06;;;;;;;8.30;2.25;;;;;;;;;;5068784;28;20172;-76
2023/06/15 11:38:32;;;;;;;5.47;2.58;;;;;;;;;;5071302;28;20200;-76
2023/06/15 11:41:00;;;;;;;3.42;2.20;;;;;;;;;;5072178;28;20289;-76
2023/06/15 11:43:52;;;;;;;4.38;2.78;;;;;;;;;;5066436;28;20223;-75
2023/06/15 11:46:20;;;;;;;3.70;2.22;;;;;;;;;;5070936;28;20182;-76
2023/06/15 11:48:46;;;;;;;2.92;2.20;;;;;;;;;;5068886;28;20209;-76
2023/06/15 11:51:12;;;;;;;4.60;2.20;;;;;;;;;;5072242;28;20623;-76
2023/06/15 11:53:39;;;;;;;2.47;2.10;;;;;;;;;;5068254;28;20184;-76
2023/06/15 11:56:07;;;;;;;2.90;2.25;;;;;;;;;;5064900;28;20184;-77
2023/06/15 11:58:33;;;;;;;4.50;2.38;;;;;;;;;;5071714;28;20192;-76
2023/06/15 12:00:58;;;;;;;3.03;2.03;;;;;;;;;;5068972;28;20211;-76
2023/06/15 12:03:24;;;;;;;3.45;1.88;;;;;;;;;;5071367;28;20713;-76
2023/06/15 12:05:57;;;;;;;2.30;2.03;;;;;;;;;;5071978;28;20252;-76
2023/06/15 12:08:22;;;;;;;6.05;2.38;;;;;;;;;;5069922;28;20690;-76
2023/06/15 12:10:48;;;;;;;2.50;2.10;;;;;;;;;;5070379;28;20176;-76
2023/06/15 12:13:15;;;;;;;3.72;2.50;;;;;;;;;;5067235;28;20176;-76
2023/06/15 12:15:44;;;;;;;3.63;2.40;;;;;;;;;;5067965;28;20620;-76
2023/06/15 12:18:10;;;;;;;2.80;2.03;;;;;;;;;;5064267;28;20706;-78
2023/06/15 12:20:36;;;;;;;3.80;2.25;;;;;;;;;;5068625;28;20205;-78
2023/06/15 12:23:01;;;;;;;3.22;2.40;;;;;;;;;;5070274;28;20173;-78
2023/06/15 12:25:41;;;;;;;2.80;2.47;;;;;;;;;;5071886;28;20676;-77
2023/06/15 12:28:13;;;;;;;2.95;2.22;;;;;;;;;;5075317;28;20188;-78
2023/06/15 12:30:39;;;;;;;2.88;2.10;;;;;;;;;;5075390;28;20176;-76
2023/06/15 12:33:04;;;;;;;3.75;1.70;;;;;;;;;;5078562;28;20225;-77
2023/06/15 12:35:32;;;;;;;2.55;2.35;;;;;;;;;;5083210;28;20241;-76
2023/06/15 12:37:58;;;;;;;2.83;2.00;;;;;;;;;;5080033;28;20299;-77
2023/06/15 12:40:23;;;;;;;4.32;2.45;;;;;;;;;;5084860;28;20673;-77
2023/06/15 12:42:58;;;;;;;5.82;2.10;;;;;;;;;;5080543;28;20279;-77
2023/06/15 12:45:23;;;;;;;2.30;1.73;;;;;;;;;;5080091;28;20171;-76
2023/06/15 12:47:49;;;;;;;30.37;2.43;;;;;;;;;;5075711;28;20246;-77
2023/06/15 12:50:15;;;;;;;3.08;2.40;;;;;;;;;;5073724;28;20424;-76
2023/06/15 12:52:40;;;;;;;3.17;2.00;;;;;;;;;;5073082;28;20185;-77
2023/06/15 12:55:06;;;;;;;2.95;2.13;;;;;;;;;;5067591;28;20999;-76
2023/06/15 12:57:31;;;;;;;4.80;2.08;;;;;;;;;;5069221;28;20192;-77
2023/06/15 12:59:56;;;;;;;4.30;1.97;;;;;;;;;;5066281;28;20694;-77
2023/06/15 13:02:21;;;;;;;4.40;1.93;;;;;;;;;;5063073;28;20263;-77
2023/06/15 13:04:47;;;;;;;5.50;1.83;;;;;;;;;;5067419;28;20520;-77
2023/06/15 13:07:12;;;;;;;3.78;2.15;;;;;;;;;;5067537;28;20238;-76
2023/06/15 13:09:37;;;;;;;4.43;2.17;;;;;;;;;;5065251;28;20642;-76
2023/06/15 13:12:02;;;;;;;5.40;2.20;;;;;;;;;;5066788;28;20169;-76
2023/06/15 13:14:29;;;;;;;2.33;2.05;;;;;;;;;;5067826;28;20258;-76
2023/06/15 13:16:54;;;;;;;3.63;2.10;;;;;;;;;;5071466;28;20204;-76
2023/06/15 13:19:19;;;;;;;1.87;1.67;;;;;;;;;;5065565;28;20245;-76
2023/06/15 13:21:44;;;;;;;3.60;2.30;;;;;;;;;;5062835;28;20983;-77
2023/06/15 13:24:10;;;;;;;3.40;1.67;;;;;;;;;;5069053;28;20944;-77
2023/06/15 13:26:35;;;;;;;4.32;2.53;;;;;;;;;;5059870;28;20169;-77
2023/06/15 13:29:00;;;;;;;3.00;2.30;;;;;;;;;;5069134;28;20259;-76
2023/06/15 13:31:26;;;;;;;2.57;1.90;;;;;;;;;;5064556;28;20178;-76
2023/06/15 13:33:52;;;;;;;3.55;2.25;;;;;;;;;;5070377;28;20464;-75
2023/06/15 13:36:17;;;;;;;2.80;2.00;;;;;;;;;;5067805;28;20204;-77
2023/06/15 13:38:42;;;;;;;4.30;2.50;;;;;;;;;;5071582;28;20211;-77
2023/06/15 13:41:07;;;;;;;6.80;2.63;;;;;;;;;;5070370;28;20921;-77
2023/06/15 13:43:32;;;;;;;3.30;2.20;;;;;;;;;;5068470;28;20250;-78
2023/06/15 13:45:58;;;;;;;3.40;2.43;;;;;;;;;;5076254;28;20203;-77
2023/06/15 13:48:23;;;;;;;4.33;2.40;;;;;;;;;;5069019;28;20697;-77
2023/06/15 13:50:48;;;;;;;2.97;1.93;;;;;;;;;;5074754;28;20421;-78
2023/06/15 13:53:13;;;;;;;5.53;2.10;;;;;;;;;;5074591;28;20230;-77
2023/06/15 13:55:38;;;;;;;5.50;2.10;;;;;;;;;;5079255;28;20416;-77
2023/06/15 13:58:04;;;;;;;2.00;1.80;;;;;;;;;;5075158;28;21169;-77
2023/06/15 14:00:29;;;;;;;4.47;2.03;;;;;;;;;;5073228;28;20200;-77
2023/06/15 14:02:55;;;;;;;3.90;2.33;;;;;;;;;;5058599;28;20406;-77
2023/06/15 14:05:20;;;;;;;6.28;1.95;;;;;;;;;;5062749;28;20168;-77
2023/06/15 14:07:46;;;;;;;5.07;2.03;;;;;;;;;;5062009;28;20218;-77
2023/06/15 14:10:11;;;;;;;5.30;2.17;;;;;;;;;;5075404;28;20658;-78
2023/06/15 14:12:36;;;;;;;1.95;1.60;;;;;;;;;;5070053;28;20208;-77
2023/06/15 14:15:02;;;;;;;3.53;2.00;;;;;;;;;;5067955;28;20658;-78
2023/06/15 14:17:27;;;;;;;5.03;2.17;;;;;;;;;;5071373;28;20200;-78
2023/06/15 14:19:53;;;;;;;3.70;2.70;;;;;;;;;;5075034;28;20568;-78
2023/06/15 14:22:18;;;;;;;2.50;1.80;;;;;;;;;;5070528;28;20238;-78
2023/06/15 14:24:43;;;;;;;2.00;1.58;;;;;;;;;;5074122;28;20174;-77
2023/06/15 14:27:08;;;;;;;3.30;2.00;;;;;;;;;;5075188;28;20246;-77
2023/06/15 14:29:33;;;;;;;3.20;1.60;;;;;;;;;;5067088;28;20428;-77
2023/06/15 14:31:59;;;;;;;3.87;2.23;;;;;;;;;;5062343;28;20433;-77
2023/06/15 14:34:24;;;;;;;3.30;2.03;;;;;;;;;;5068635;28;20192;-75
2023/06/15 14:36:50;;;;;;;6.30;1.77;;;;;;;;;;5060244;28;20187;-76
2023/06/15 14:39:15;;;;;;;2.25;1.77;;;;;;;;;;5060324;28;20181;-77